Time;durP1;ratioP1;P1;durP2;ratioP2;P2;SDS_P1;SDS_P2;PMS_P1;PMS_P2;Temp;Humidity;BMP_temperature;BMP_pressure;BME280_temperature;BME280_humidity;BME280_pressure;Samples;Min_cycle;Max_cycle;Signal;HPM_P1;HPM_P2
2022/12/22 03:26:25;;;;;;;;;1.50;1.50;;;;;14.11;74.19;100038.22;2072178;28;46732;-63
2022/12/22 03:27:25;;;;;;;;;0.00;0.00;;;;;14.10;74.55;100048.03;2072100;28;45333;-62
2022/12/22 03:28:27;;;;;;;;;2.33;1.33;;;;;14.09;74.33;100030.25;2068565;28;46246;-63
2022/12/22 03:29:27;;;;;;;;;4.50;1.75;;;;;14.09;74.41;100034.72;2094646;28;45924;-62
2022/12/22 03:30:27;;;;;;;;;4.00;2.33;;;;;14.10;74.42;100032.00;2105930;27;46344;-63
2022/12/22 03:31:28;;;;;;;;;5.00;4.00;;;;;14.08;74.09;100028.53;2109076;27;46248;-61
2022/12/22 03:32:28;;;;;;;;;3.67;2.00;;;;;14.07;74.25;100033.94;2106867;27;46504;-63
2022/12/22 03:33:29;;;;;;;;;4.33;3.33;;;;;14.09;74.33;100046.25;2107870;27;46239;-62
2022/12/22 03:34:30;;;;;;;;;3.25;3.25;;;;;14.09;73.96;100034.72;2113705;27;45877;-63
2022/12/22 03:35:30;;;;;;;;;2.67;2.67;;;;;14.07;74.25;100037.47;2106191;27;46683;-63
2022/12/22 03:36:30;;;;;;;;;3.00;3.00;;;;;14.09;74.39;100040.06;2109364;27;46527;-62
2022/12/22 03:37:31;;;;;;;;;2.00;2.00;;;;;14.07;73.96;100048.13;2106379;27;46397;-62
2022/12/22 03:38:31;;;;;;;;;3.00;3.00;;;;;14.07;74.38;100032.13;2106192;27;45718;-62
2022/12/22 03:39:32;;;;;;;;;2.67;2.33;;;;;14.06;74.04;100051.75;2105852;27;46517;-63
2022/12/22 03:40:32;;;;;;;;;2.00;2.00;;;;;14.06;74.27;100024.19;2105997;28;46570;-62
2022/12/22 03:46:55;;;;;;;;;2.00;2.00;;;;;14.02;74.29;100054.63;2088538;28;45893;-61
2022/12/22 03:47:56;;;;;;;;;1.00;0.67;;;;;14.01;74.17;100047.56;2089085;28;46605;-63
2022/12/22 03:49:10;;;;;;;;;2.00;2.00;;;;;13.99;73.87;100042.31;2096392;28;46634;-62
2022/12/22 03:50:11;;;;;;;;;2.50;2.50;;;;;13.99;73.80;100022.78;2087340;28;46608;-62
2022/12/22 03:51:11;;;;;;;;;3.67;2.67;;;;;13.98;73.48;100026.38;2088202;28;45426;-62
2022/12/22 03:52:11;;;;;;;;;3.00;1.33;;;;;13.96;73.46;100025.56;2079804;28;45156;-63
2022/12/22 03:53:12;;;;;;;;;2.00;2.00;;;;;13.94;73.47;100020.31;2071978;28;46703;-61
2022/12/22 03:54:17;;;;;;;;;3.00;1.67;;;;;13.94;73.49;100016.78;2079808;28;46623;-62
2022/12/22 03:55:18;;;;;;;;;3.00;1.50;;;;;13.93;73.24;100021.25;2080086;28;46940;-62
2022/12/22 03:56:18;;;;;;;;;2.67;2.67;;;;;13.93;73.37;99999.03;2087590;28;46864;-61
2022/12/22 03:57:18;;;;;;;;;3.00;2.00;;;;;13.94;73.15;100024.78;2088475;28;46590;-63
2022/12/22 03:58:19;;;;;;;;;4.00;1.00;;;;;13.93;73.14;100031.91;2079772;28;46944;-62
2022/12/22 03:59:19;;;;;;;;;2.67;2.00;;;;;13.94;73.13;100024.78;2082419;28;46780;-62
2022/12/22 04:00:20;;;;;;;;;5.67;4.00;;;;;13.93;72.86;100018.56;2088437;28;46379;-62
2022/12/22 04:01:21;;;;;;;;;2.00;1.00;;;;;13.93;73.08;100025.72;2089893;28;46640;-62
2022/12/22 04:02:21;;;;;;;;;3.00;1.67;;;;;13.94;73.14;100035.44;2089404;28;47058;-64
2022/12/22 04:03:21;;;;;;;;;2.33;1.67;;;;;13.94;72.67;100028.31;2088048;28;46570;-63
2022/12/22 04:04:25;;;;;;;;;2.00;2.00;;;;;13.94;73.15;100030.09;2088364;28;46417;-61
2022/12/22 04:05:25;;;;;;;;;0.25;0.25;;;;;13.94;73.09;100041.63;2088928;28;47365;-63
2022/12/22 04:06:26;;;;;;;;;2.00;2.00;;;;;13.93;72.90;100033.72;2088323;28;46393;-62
2022/12/22 04:07:26;;;;;;;;;1.33;0.33;;;;;13.94;72.97;100022.09;2088039;28;46512;-62
2022/12/22 04:08:26;;;;;;;;;3.33;1.67;;;;;13.92;73.05;100040.00;2088679;28;46288;-62
2022/12/22 04:09:28;;;;;;;;;2.00;2.00;;;;;13.91;73.09;100036.47;2088391;28;46696;-61
2022/12/22 04:13:06;;;;;;;;;0.75;0.75;;;;;13.92;72.80;100048.00;2079998;28;46457;-62
2022/12/22 04:14:06;;;;;;;;;3.00;1.00;;;;;13.91;73.11;100051.59;2086969;28;46660;-61
2022/12/22 04:15:07;;;;;;;;;4.00;2.00;;;;;13.91;72.92;100047.13;2088301;28;45993;-62
2022/12/22 04:16:07;;;;;;;;;3.00;3.00;;;;;13.90;73.42;100052.53;2080358;28;46145;-62
2022/12/22 04:17:08;;;;;;;;;2.00;2.00;;;;;13.89;72.99;100074.81;2079950;28;46005;-62
2022/12/22 04:18:09;;;;;;;;;1.33;1.33;;;;;13.89;73.02;100058.81;2088427;28;46064;-62
2022/12/22 04:19:09;;;;;;;;;1.67;1.00;;;;;13.89;73.07;100062.34;2079588;28;46664;-61
2022/12/22 04:20:10;;;;;;;;;1.00;0.00;;;;;13.88;73.41;100075.75;2084173;27;46649;-64
2022/12/22 04:21:10;;;;;;;;;2.00;2.00;;;;;13.88;72.87;100087.28;2107015;27;46014;-62
2022/12/22 04:22:11;;;;;;;;;2.00;2.00;;;;;13.88;73.26;100092.63;2108387;27;46901;-61
2022/12/22 04:23:11;;;;;;;;;4.00;2.67;;;;;13.89;73.12;100085.47;2106038;27;46457;-62
2022/12/22 04:24:12;;;;;;;;;2.00;2.00;;;;;13.89;73.08;100085.47;2105461;27;46403;-62
2022/12/22 04:25:13;;;;;;;;;3.50;1.25;;;;;13.89;73.29;100099.69;2108973;27;46985;-62
2022/12/22 04:26:13;;;;;;;;;2.75;2.00;;;;;13.89;72.83;100102.34;2114555;27;46640;-62
2022/12/22 04:27:14;;;;;;;;;1.67;1.00;;;;;13.88;73.13;100092.63;2107700;27;46534;-62
2022/12/22 04:28:14;;;;;;;;;4.00;4.00;;;;;13.89;72.81;100089.00;2106035;27;46331;-62
2022/12/22 04:29:14;;;;;;;;;3.33;2.33;;;;;13.89;73.31;100097.00;2105393;28;45734;-61
2022/12/22 04:30:16;;;;;;;;;2.00;1.00;;;;;13.90;72.91;100096.06;2106917;27;46707;-62
2022/12/22 04:31:17;;;;;;;;;1.00;0.50;;;;;13.90;72.93;100100.53;2105771;27;45468;-62
2022/12/22 04:32:17;;;;;;;;;2.50;1.25;;;;;13.91;72.79;100096.94;2105705;28;46784;-62
2022/12/22 04:33:18;;;;;;;;;1.00;1.00;;;;;13.90;72.95;100116.56;2095802;28;46753;-62
2022/12/22 04:34:18;;;;;;;;;1.00;1.00;;;;;13.91;72.56;100123.63;2096506;28;46547;-61
2022/12/22 04:35:18;;;;;;;;;2.00;1.00;;;;;13.90;72.65;100130.75;2110340;27;45953;-61
2022/12/22 04:36:19;;;;;;;;;1.67;1.00;;;;;13.91;72.57;100128.94;2104614;28;46038;-62
2022/12/22 04:37:19;;;;;;;;;1.33;1.33;;;;;13.92;72.89;100120.88;2088433;28;46820;-63
2022/12/22 04:38:19;;;;;;;;;1.33;1.33;;;;;13.93;72.81;100127.06;2105604;27;46799;-62
2022/12/22 04:39:20;;;;;;;;;4.67;2.00;;;;;13.93;72.20;100145.75;2105305;27;46783;-62
2022/12/22 04:40:20;;;;;;;;;1.33;1.00;;;;;13.93;72.67;100137.75;2105257;27;46806;-62
2022/12/22 04:41:21;;;;;;;;;0.00;0.00;;;;;13.93;72.25;100148.41;2106370;27;45928;-62
2022/12/22 04:42:21;;;;;;;;;2.67;1.67;;;;;13.94;72.36;100152.81;2105597;28;46490;-62
2022/12/22 04:43:21;;;;;;;;;3.00;2.00;;;;;13.96;72.14;100150.94;2105082;28;46647;-62
2022/12/22 04:44:22;;;;;;;;;1.00;0.00;;;;;13.94;72.36;100160.81;2105824;27;46099;-62
2022/12/22 04:45:22;;;;;;;;;2.00;1.00;;;;;13.93;72.55;100146.59;2113828;27;46630;-62
2022/12/22 04:46:22;;;;;;;;;1.00;0.00;;;;;13.93;72.42;100161.75;2111384;27;46745;-61
2022/12/22 04:47:23;;;;;;;;;0.00;0.00;;;;;13.94;72.41;100166.16;2105963;27;46394;-61
2022/12/22 04:48:24;;;;;;;;;3.00;2.00;;;;;13.94;72.53;100172.34;2109976;27;46364;-61
2022/12/22 04:49:25;;;;;;;;;2.50;1.00;;;;;13.93;72.09;100167.94;2113312;27;45807;-61
2022/12/22 04:50:25;;;;;;;;;2.67;1.33;;;;;13.93;72.60;100181.28;2104849;28;46629;-61
2022/12/22 04:51:27;;;;;;;;;1.00;1.00;;;;;13.94;72.76;100171.47;2109051;27;46507;-61
2022/12/22 04:52:27;;;;;;;;;2.25;0.75;;;;;13.94;72.41;100179.50;2114219;27;47249;-61
2022/12/22 04:53:28;;;;;;;;;1.33;0.67;;;;;13.95;72.34;100183.88;2105882;27;46243;-61
2022/12/22 04:54:29;;;;;;;;;0.50;0.00;;;;;13.93;72.27;100191.97;2105614;27;46525;-62
2022/12/22 04:55:29;;;;;;;;;1.00;1.00;;;;;13.93;72.27;100181.28;2105673;27;46227;-62
2022/12/22 04:56:29;;;;;;;;;1.00;1.00;;;;;13.94;72.23;100182.16;2102987;27;46273;-63
2022/12/22 04:57:30;;;;;;;;;1.00;0.67;;;;;13.93;72.53;100189.28;2105102;27;46188;-62
2022/12/22 04:58:31;;;;;;;;;1.33;1.33;;;;;13.93;72.30;100191.97;2096744;28;45053;-62
2022/12/22 04:59:31;;;;;;;;;0.00;0.00;;;;;13.94;72.02;100198.16;2105301;27;47461;-62
2022/12/22 05:00:31;;;;;;;;;0.00;0.00;;;;;13.93;72.50;100202.63;2105289;27;46195;-62
2022/12/22 05:01:32;;;;;;;;;0.33;0.33;;;;;13.94;72.35;100203.50;2112897;27;46209;-61
2022/12/22 05:02:32;;;;;;;;;1.00;0.00;;;;;13.94;71.85;100214.16;2108902;27;44976;-60
2022/12/22 05:03:32;;;;;;;;;3.00;1.00;;;;;13.93;71.91;100207.09;2105944;27;46092;-61
2022/12/22 05:04:33;;;;;;;;;1.33;1.00;;;;;13.92;72.26;100216.03;2106316;27;46573;-61
2022/12/22 05:05:34;;;;;;;;;2.00;2.00;;;;;13.90;72.21;100215.25;2099383;28;46735;-61
2022/12/22 05:06:34;;;;;;;;;1.00;1.00;;;;;13.92;71.76;100216.03;2096361;28;46474;-61
2022/12/22 05:07:34;;;;;;;;;0.00;0.00;;;;;13.91;72.16;100217.84;2105812;28;46182;-61
2022/12/22 05:08:35;;;;;;;;;2.67;1.00;;;;;13.90;72.22;100220.56;2105605;27;46581;-62
2022/12/22 05:09:35;;;;;;;;;1.00;0.00;;;;;13.89;72.12;100222.38;2105137;28;46720;-62
2022/12/22 05:10:35;;;;;;;;;1.00;1.00;;;;;13.89;72.07;100230.38;2106280;27;46481;-62
2022/12/22 05:11:36;;;;;;;;;3.33;2.00;;;;;13.90;72.22;100233.91;2105666;28;45866;-61
2022/12/22 05:12:55;;;;;;;;;1.00;1.00;;;;;13.89;72.17;100232.19;2105645;27;46810;-61
2022/12/22 05:13:55;;;;;;;;;1.50;1.00;;;;;13.89;71.89;100241.06;2107785;27;46539;-61
2022/12/22 05:14:56;;;;;;;;;1.00;0.67;;;;;13.89;72.17;100237.53;2113635;27;46806;-61
2022/12/22 05:16:11;;;;;;;;;2.33;1.00;;;;;13.90;72.31;100249.91;2107618;27;46828;-62
2022/12/22 05:17:11;;;;;;;;;0.00;0.00;;;;;13.89;71.88;100253.53;2107682;27;46510;-62
2022/12/22 05:18:12;;;;;;;;;0.00;0.00;;;;;13.89;71.89;100250.84;2105374;27;46713;-62
2022/12/22 05:19:12;;;;;;;;;2.00;2.00;;;;;13.88;72.02;100251.78;2104506;28;46726;-62
2022/12/22 05:20:12;;;;;;;;;0.00;0.00;;;;;13.88;72.18;100252.66;2104724;28;46623;-61
2022/12/22 05:21:15;;;;;;;;;0.00;0.00;;;;;13.87;72.16;100253.59;2105227;27;46576;-62
2022/12/22 05:22:16;;;;;;;;;1.50;0.00;;;;;13.86;72.21;100257.19;2105543;27;45979;-61
2022/12/22 05:23:16;;;;;;;;;0.67;0.67;;;;;13.86;71.85;100249.19;2105458;27;46659;-62
2022/12/22 05:24:16;;;;;;;;;0.00;0.00;;;;;13.85;72.24;100260.78;2104892;28;46736;-60
2022/12/22 05:25:18;;;;;;;;;1.00;0.00;;;;;13.86;72.03;100259.00;2104827;27;46632;-61
2022/12/22 05:26:19;;;;;;;;;0.00;0.00;;;;;13.84;72.17;100265.22;2104752;27;46161;-60
2022/12/22 05:27:19;;;;;;;;;0.00;0.00;;;;;13.84;71.84;100257.22;2111972;27;46347;-63
2022/12/22 05:28:19;;;;;;;;;1.00;1.00;;;;;13.84;72.00;100267.03;2112005;27;46438;-62
2022/12/22 05:29:20;;;;;;;;;0.00;0.00;;;;;13.85;72.09;100266.13;2105389;27;45896;-61
2022/12/22 05:30:20;;;;;;;;;0.00;0.00;;;;;13.83;71.90;100259.97;2104723;28;46416;-61
2022/12/22 05:31:22;;;;;;;;;1.00;1.00;;;;;13.82;72.08;100259.09;2104597;28;46184;-61
2022/12/22 05:32:23;;;;;;;;;0.00;0.00;;;;;13.82;71.89;100260.91;2105640;27;46383;-61
2022/12/22 05:33:23;;;;;;;;;0.67;0.67;;;;;13.81;72.17;100262.69;2106605;27;46246;-62
2022/12/22 05:34:23;;;;;;;;;1.67;0.33;;;;;13.83;72.23;100267.97;2113274;27;46236;-61
2022/12/22 05:35:24;;;;;;;;;0.00;0.00;;;;;13.83;72.01;100268.84;2116618;27;45667;-62
2022/12/22 05:36:24;;;;;;;;;2.00;1.67;;;;;13.84;72.14;100267.03;2113012;27;46279;-61
2022/12/22 05:37:24;;;;;;;;;0.67;0.67;;;;;13.84;72.10;100278.56;2105453;27;46982;-62
2022/12/22 05:38:25;;;;;;;;;0.00;0.00;;;;;13.83;71.76;100276.84;2105273;27;46596;-62
2022/12/22 05:39:25;;;;;;;;;0.00;0.00;;;;;13.84;72.03;100285.69;2105027;28;46576;-60
2022/12/22 05:40:25;;;;;;;;;0.00;0.00;;;;;13.85;71.95;100279.47;2096082;28;46347;-62
2022/12/22 05:41:26;;;;;;;;;1.00;0.00;;;;;13.84;72.05;100281.22;2107130;27;46017;-62
2022/12/22 05:42:35;;;;;;;;;2.00;0.33;;;;;13.85;71.88;100276.81;2113687;27;46667;-62
2022/12/22 05:43:36;;;;;;;;;0.00;0.00;;;;;13.87;71.33;100282.06;2107304;27;46494;-61
2022/12/22 05:44:36;;;;;;;;;0.00;0.00;;;;;13.86;71.16;100288.34;2103836;27;46717;-61
2022/12/22 05:45:37;;;;;;;;;1.00;1.00;;;;;13.83;71.28;100283.97;2097048;28;46910;-62
2022/12/22 05:46:37;;;;;;;;;1.67;0.00;;;;;13.84;71.44;100293.72;2101705;28;46663;-62
2022/12/22 05:47:38;;;;;;;;;0.00;0.00;;;;;13.83;71.45;100291.97;2105202;27;45622;-61
2022/12/22 05:48:38;;;;;;;;;0.00;0.00;;;;;13.83;71.68;100291.97;2104777;28;47031;-60
2022/12/22 05:49:39;;;;;;;;;0.00;0.00;;;;;13.82;71.58;100299.09;2104550;28;46732;-62
2022/12/22 05:50:39;;;;;;;;;0.67;0.67;;;;;13.81;71.48;100294.72;2104993;27;46890;-62
2022/12/22 05:51:40;;;;;;;;;0.00;0.00;;;;;13.80;71.38;100298.31;2105308;27;46407;-63
2022/12/22 05:52:40;;;;;;;;;1.00;0.00;;;;;13.80;71.37;100298.31;2104796;27;46241;-62
2022/12/22 05:53:41;;;;;;;;;0.00;0.00;;;;;13.79;71.02;100301.91;2096897;28;46314;-62
2022/12/22 05:54:41;;;;;;;;;0.00;0.00;;;;;13.80;71.63;100308.09;2103222;28;46242;-62
2022/12/22 05:55:41;;;;;;;;;0.00;0.00;;;;;13.80;71.66;100300.09;2105231;28;46673;-62
2022/12/22 05:56:42;;;;;;;;;1.00;0.00;;;;;13.81;71.22;100309.84;2113720;27;46004;-61
2022/12/22 05:57:42;;;;;;;;;1.00;1.00;;;;;13.81;71.29;100308.03;2107409;27;46700;-63
2022/12/22 05:58:42;;;;;;;;;0.67;0.00;;;;;13.80;71.44;100310.78;2104976;28;46297;-61
2022/12/22 05:59:43;;;;;;;;;0.00;0.00;;;;;13.80;71.25;100302.78;2105361;27;46878;-61
2022/12/22 06:00:43;;;;;;;;;2.00;0.00;;;;;13.81;71.39;100310.72;2106113;27;46274;-62
2022/12/22 06:01:43;;;;;;;;;1.00;0.00;;;;;13.82;71.64;100317.78;2113881;27;46612;-62
2022/12/22 06:02:44;;;;;;;;;1.00;0.00;;;;;13.83;71.13;100315.97;2108778;27;46401;-62
2022/12/22 06:03:44;;;;;;;;;0.00;0.00;;;;;13.81;71.35;100321.38;2098529;28;45999;-62
2022/12/22 06:04:44;;;;;;;;;0.00;0.00;;;;;13.80;71.47;100326.78;2105021;28;46843;-63
2022/12/22 06:05:48;;;;;;;;;0.00;0.00;;;;;13.80;71.22;100330.31;2105418;27;46954;-62
2022/12/22 06:06:49;;;;;;;;;0.00;0.00;;;;;13.81;71.29;100323.19;2105272;27;46366;-62
2022/12/22 06:07:49;;;;;;;;;1.67;0.67;;;;;13.80;71.51;100324.13;2105080;27;46740;-62
2022/12/22 06:08:49;;;;;;;;;0.00;0.00;;;;;13.80;71.56;100326.78;2107717;27;46116;-61
2022/12/22 06:09:50;;;;;;;;;1.00;0.00;;;;;13.80;71.55;100334.78;2105156;28;45682;-62
2022/12/22 06:10:53;;;;;;;;;1.00;0.00;;;;;13.80;71.64;100337.44;2109330;27;46276;-61
2022/12/22 06:11:54;;;;;;;;;0.00;0.00;;;;;13.79;71.82;100333.91;2110151;27;46322;-62
2022/12/22 06:12:54;;;;;;;;;0.00;0.00;;;;;13.80;71.65;100337.44;2105425;27;46473;-62
2022/12/22 06:13:54;;;;;;;;;0.00;0.00;;;;;13.80;71.90;100334.78;2104925;27;45990;-62
2022/12/22 06:14:55;;;;;;;;;0.00;0.00;;;;;13.79;71.78;100341.03;2105277;27;46714;-61
2022/12/22 06:15:55;;;;;;;;;1.67;0.00;;;;;13.78;71.76;100347.31;2111797;27;45904;-61
2022/12/22 06:16:55;;;;;;;;;0.00;0.00;;;;;13.77;72.02;100338.44;2109775;27;46600;-61
2022/12/22 06:17:56;;;;;;;;;0.00;0.00;;;;;13.76;72.22;100346.50;2114241;27;46609;-61
2022/12/22 06:18:56;;;;;;;;;0.00;0.00;;;;;13.75;72.38;100345.66;2115933;27;46236;-62
2022/12/22 06:19:56;;;;;;;;;0.00;0.00;;;;;13.74;72.35;100341.25;2113010;27;46766;-61
2022/12/22 06:20:57;;;;;;;;;0.67;0.00;;;;;13.73;72.35;100344.84;2105402;27;46320;-62
2022/12/22 06:21:57;;;;;;;;;0.00;0.00;;;;;13.71;72.38;100344.00;2106032;27;45585;-62
2022/12/22 06:22:57;;;;;;;;;0.00;0.00;;;;;13.71;72.65;100356.47;2105245;27;46419;-62
2022/12/22 06:23:58;;;;;;;;;0.00;0.00;;;;;13.70;72.66;100352.06;2104959;27;46822;-62
2022/12/22 06:24:58;;;;;;;;;0.00;0.00;;;;;13.70;72.99;100354.75;2105147;27;46482;-62
2022/12/22 06:26:00;;;;;;;;;0.00;0.00;;;;;13.69;73.29;100364.53;2111881;27;46286;-62
2022/12/22 06:27:01;;;;;;;;;0.00;0.00;;;;;13.69;73.18;100366.34;2105442;27;47010;-63
2022/12/22 06:28:01;;;;;;;;;0.00;0.00;;;;;13.67;73.45;100371.75;2105459;27;46371;-61
2022/12/22 06:29:02;;;;;;;;;0.00;0.00;;;;;13.65;73.79;100367.41;2103703;28;45839;-62
2022/12/22 06:30:02;;;;;;;;;0.00;0.00;;;;;13.64;73.79;100368.34;2104281;27;46158;-62
2022/12/22 06:31:03;;;;;;;;;0.00;0.00;;;;;13.62;74.06;100372.88;2103401;28;46470;-61
2022/12/22 06:32:04;;;;;;;;;0.00;0.00;;;;;13.60;74.16;100378.25;2097241;28;46527;-62
2022/12/22 06:33:04;;;;;;;;;0.00;0.00;;;;;13.59;74.26;100380.97;2106603;27;47248;-61
2022/12/22 06:34:04;;;;;;;;;0.00;0.00;;;;;13.57;74.27;100378.38;2106636;27;46436;-61
2022/12/22 06:35:06;;;;;;;;;0.00;0.00;;;;;13.54;74.90;100381.16;2107344;27;47837;-61
2022/12/22 06:36:07;;;;;;;;;0.25;0.00;;;;;13.53;74.80;100388.28;2112603;27;46650;-61
2022/12/22 06:37:07;;;;;;;;;3.00;0.00;;;;;13.51;74.84;100394.63;2111453;27;46893;-61
2022/12/22 06:38:08;;;;;;;;;0.67;0.00;;;;;13.49;75.36;100378.69;2112133;27;46641;-62
2022/12/22 06:39:08;;;;;;;;;0.00;0.00;;;;;13.50;75.29;100384.88;2115119;27;46294;-61
2022/12/22 06:40:09;;;;;;;;;0.00;0.00;;;;;13.49;75.79;100381.34;2114986;27;46811;-63
2022/12/22 06:41:09;;;;;;;;;0.00;0.00;;;;;13.47;75.40;100380.53;2111876;27;45427;-62
2022/12/22 06:43:28;;;;;;;;;0.50;0.00;;;;;13.42;75.94;100389.63;2110131;27;46633;-61
2022/12/22 06:44:29;;;;;;;;;1.00;0.00;;;;;13.39;76.24;100392.41;2115193;27;46236;-62
2022/12/22 06:45:29;;;;;;;;;0.00;0.00;;;;;13.37;76.28;100402.28;2107427;27;46302;-62
2022/12/22 06:46:30;;;;;;;;;0.00;0.00;;;;;13.35;76.36;100396.13;2116002;27;46187;-62
2022/12/22 06:47:30;;;;;;;;;0.00;0.00;;;;;13.35;76.52;100398.81;2106518;28;46092;-62
2022/12/22 06:48:30;;;;;;;;;0.00;0.00;;;;;13.35;76.92;100406.81;2110898;27;46219;-61
2022/12/22 06:49:31;;;;;;;;;0.00;0.00;;;;;13.35;76.57;100396.13;2107883;27;46291;-61
2022/12/22 06:50:32;;;;;;;;;0.00;0.00;;;;;13.34;76.64;100411.25;2096734;28;46452;-62
2022/12/22 06:51:32;;;;;;;;;0.75;0.75;;;;;13.34;76.87;100407.69;2104533;27;46337;-61
2022/12/22 06:52:32;;;;;;;;;0.00;0.00;;;;;13.33;76.69;100405.97;2110265;27;46867;-62
2022/12/22 06:53:33;;;;;;;;;0.00;0.00;;;;;13.32;76.82;100413.09;2115378;27;45920;-63
2022/12/22 06:54:33;;;;;;;;;0.00;0.00;;;;;13.32;77.14;100412.22;2107214;27;46438;-61
2022/12/22 06:55:34;;;;;;;;;0.00;0.00;;;;;13.30;76.97;100404.28;2105985;28;46634;-62
2022/12/22 06:56:34;;;;;;;;;1.00;0.00;;;;;13.30;77.27;100400.75;2111157;27;46425;-62
2022/12/22 06:57:35;;;;;;;;;0.00;0.00;;;;;13.31;77.19;100405.16;2114929;27;46325;-62
2022/12/22 06:58:35;;;;;;;;;0.67;0.67;;;;;13.29;77.11;100404.34;2106608;27;46901;-62
2022/12/22 06:59:35;;;;;;;;;2.67;1.00;;;;;13.29;77.14;100407.00;2111273;27;46661;-61
2022/12/22 07:00:36;;;;;;;;;0.00;0.00;;;;;13.29;77.20;100410.53;2106453;27;47048;-60
2022/12/22 07:01:36;;;;;;;;;0.33;0.33;;;;;13.29;77.61;100415.00;2107071;27;46307;-61
2022/12/22 07:02:36;;;;;;;;;1.00;1.00;;;;;13.29;77.47;100413.22;2111599;27;46566;-62
2022/12/22 07:03:37;;;;;;;;;0.00;0.00;;;;;13.31;77.38;100424.69;2100317;27;46773;-63
2022/12/22 07:04:38;;;;;;;;;0.00;0.00;;;;;13.32;77.60;100421.09;2111178;27;46156;-62
2022/12/22 07:05:38;;;;;;;;;1.00;1.00;;;;;13.33;77.74;100422.81;2110687;27;46475;-61
2022/12/22 07:06:38;;;;;;;;;1.00;1.00;;;;;13.34;77.27;100418.34;2107978;27;45608;-63
2022/12/22 07:07:38;;;;;;;;;0.00;0.00;;;;;13.34;77.74;100421.94;2106229;27;46206;-61
2022/12/22 07:08:39;;;;;;;;;1.00;1.00;;;;;13.36;77.23;100428.06;2106689;27;46274;-62
2022/12/22 07:09:39;;;;;;;;;1.33;1.33;;;;;13.36;77.38;100427.19;2106343;27;46297;-62
2022/12/22 07:10:57;;;;;;;;;1.67;0.00;;;;;13.36;77.17;100422.72;2106313;27;46782;-62
2022/12/22 07:11:58;;;;;;;;;1.00;1.00;;;;;13.36;77.21;100425.41;2097108;28;46729;-62
2022/12/22 07:13:17;;;;;;;;;1.00;1.00;;;;;13.36;77.27;100414.75;2099497;28;46836;-62
2022/12/22 07:14:18;;;;;;;;;1.00;1.00;;;;;13.38;77.26;100428.00;2106587;27;46839;-62
2022/12/22 07:15:18;;;;;;;;;1.33;1.33;;;;;13.38;77.64;100428.00;2106516;27;46663;-61
2022/12/22 07:16:18;;;;;;;;;2.67;2.67;;;;;13.37;77.40;100428.94;2105435;28;46662;-61
2022/12/22 07:17:19;;;;;;;;;3.67;2.33;;;;;13.36;77.30;100425.41;2111973;27;46358;-61
2022/12/22 07:18:20;;;;;;;;;2.33;2.00;;;;;13.36;77.41;100437.84;2109050;27;46429;-61
2022/12/22 07:19:20;;;;;;;;;3.00;2.00;;;;;13.35;77.21;100431.66;2114540;27;47074;-62
2022/12/22 07:20:20;;;;;;;;;3.00;2.00;;;;;13.33;77.38;100433.47;2108886;27;46469;-61
2022/12/22 07:21:21;;;;;;;;;2.00;2.00;;;;;13.34;77.46;100437.91;2106232;27;45155;-63
2022/12/22 07:22:21;;;;;;;;;5.00;4.33;;;;;13.34;77.26;100437.91;2106274;27;46077;-63
2022/12/22 07:23:22;;;;;;;;;2.00;2.00;;;;;13.36;77.24;100440.53;2104990;28;46338;-61
2022/12/22 07:24:24;;;;;;;;;4.33;4.33;;;;;13.35;77.30;100439.66;2105751;28;46573;-61
2022/12/22 07:25:24;;;;;;;;;4.50;3.00;;;;;13.35;77.66;100450.31;2106264;27;47019;-63
2022/12/22 07:26:25;;;;;;;;;4.00;2.00;;;;;13.36;77.53;100446.72;2106789;27;46313;-62
2022/12/22 07:27:25;;;;;;;;;5.00;3.33;;;;;13.36;77.78;100440.53;2112220;27;45524;-61
2022/12/22 07:28:26;;;;;;;;;4.00;3.67;;;;;13.37;77.56;100436.94;2104089;27;46946;-61
2022/12/22 07:29:26;;;;;;;;;3.33;2.00;;;;;13.38;77.47;100444.00;2105718;28;46630;-61
2022/12/22 07:30:26;;;;;;;;;5.33;4.00;;;;;13.39;77.20;100443.06;2106025;28;46896;-61
2022/12/22 07:31:27;;;;;;;;;5.67;4.33;;;;;13.40;77.47;100451.00;2110170;27;46417;-62
2022/12/22 07:32:27;;;;;;;;;3.00;3.00;;;;;13.40;77.28;100452.78;2107083;27;46574;-62
2022/12/22 07:33:27;;;;;;;;;6.00;4.00;;;;;13.39;77.20;100446.59;2108607;27;46172;-62
2022/12/22 07:34:28;;;;;;;;;3.00;3.00;;;;;13.40;77.20;100447.47;2111752;27;46292;-63
2022/12/22 07:35:28;;;;;;;;;5.00;4.33;;;;;13.40;77.13;100453.66;2111788;27;46949;-62
2022/12/22 07:36:28;;;;;;;;;3.67;3.67;;;;;13.41;77.06;100451.88;2108799;27;46388;-62
2022/12/22 07:37:29;;;;;;;;;7.33;4.00;;;;;13.41;77.38;100451.88;2106361;27;46226;-62
2022/12/22 07:38:38;;;;;;;;;6.33;4.00;;;;;13.42;77.21;100459.81;2106672;27;46244;-61
2022/12/22 07:39:39;;;;;;;;;4.50;4.25;;;;;13.43;77.10;100466.00;2106360;28;46266;-61
2022/12/22 07:40:39;;;;;;;;;4.00;4.00;;;;;13.43;76.99;100461.53;2106181;27;46389;-61
2022/12/22 07:43:00;;;;;;;;;4.00;3.75;;;;;13.46;77.06;100465.88;2111989;27;46973;-62
2022/12/22 07:44:02;;;;;;;;;5.75;5.25;;;;;13.46;76.95;100460.53;2114785;27;47054;-61
2022/12/22 07:45:03;;;;;;;;;8.50;4.75;;;;;13.45;77.14;100465.00;2106762;27;46936;-61
2022/12/22 07:46:05;;;;;;;;;5.00;4.00;;;;;13.47;77.20;100464.97;2108585;27;45881;-62
2022/12/22 07:47:05;;;;;;;;;5.75;5.75;;;;;13.47;76.95;100471.19;2097753;28;46644;-63
2022/12/22 07:50:23;;;;;;;;;4.00;4.00;;;;;13.48;76.93;100461.38;2103810;27;46923;-62
2022/12/22 07:50:45;;;;;;;;;6.25;5.25;;;;;13.50;76.92;100463.06;2105732;28;46892;-62
2022/12/22 07:51:45;;;;;;;;;5.67;4.00;;;;;13.51;76.57;100463.94;2112695;27;45760;-62
2022/12/22 07:52:45;;;;;;;;;4.33;4.33;;;;;13.52;76.49;100465.66;2108951;27;46567;-61
2022/12/22 07:53:46;;;;;;;;;6.33;5.00;;;;;13.51;76.43;100463.94;2106815;27;46266;-60
2022/12/22 07:54:46;;;;;;;;;6.00;6.00;;;;;13.52;76.61;100471.00;2105845;27;46720;-62
2022/12/22 07:55:46;;;;;;;;;8.00;8.00;;;;;13.52;76.45;100471.88;2105457;27;46344;-60
2022/12/22 07:56:47;;;;;;;;;12.00;9.00;;;;;13.53;76.29;100470.94;2096636;28;45823;-62
2022/12/22 07:57:47;;;;;;;;;6.33;6.33;;;;;13.54;76.30;100464.66;2098734;28;46433;-62
2022/12/22 07:58:47;;;;;;;;;10.00;8.67;;;;;13.57;76.32;100474.34;2090590;28;46649;-62
2022/12/22 07:59:48;;;;;;;;;10.00;6.67;;;;;13.57;76.02;100473.47;2106729;27;45994;-61
2022/12/22 08:00:48;;;;;;;;;7.33;7.33;;;;;13.59;76.42;100468.94;2105456;28;46638;-62
2022/12/22 08:01:48;;;;;;;;;7.67;5.00;;;;;13.60;75.96;100471.59;2105495;28;46306;-61
2022/12/22 08:02:51;;;;;;;;;10.33;8.33;;;;;13.61;76.26;100464.47;2103704;28;46221;-62
2022/12/22 08:03:51;;;;;;;;;8.75;7.25;;;;;13.61;75.82;100473.31;2100876;27;46583;-63
2022/12/22 08:04:51;;;;;;;;;6.67;6.00;;;;;13.61;75.88;100473.31;2114657;27;46412;-62
2022/12/22 08:05:52;;;;;;;;;8.33;6.00;;;;;13.63;75.87;100474.13;2111797;27;45650;-61
2022/12/22 08:06:52;;;;;;;;;9.67;7.33;;;;;13.63;75.31;100484.78;2114411;27;46377;-62
2022/12/22 08:07:52;;;;;;;;;12.00;10.33;;;;;13.63;75.39;100476.78;2106376;27;46531;-62
2022/12/22 08:08:53;;;;;;;;;7.67;6.67;;;;;13.63;75.61;100479.47;2113492;27;47220;-62
2022/12/22 08:09:53;;;;;;;;;13.33;8.33;;;;;13.64;75.61;100489.19;2097502;27;46206;-62
2022/12/22 08:10:53;;;;;;;;;10.00;9.00;;;;;13.62;75.30;100485.72;2108566;27;46608;-62
2022/12/22 08:11:54;;;;;;;;;9.33;6.33;;;;;13.64;75.33;100483.00;2105801;27;46299;-62
2022/12/22 08:12:55;;;;;;;;;6.00;6.00;;;;;13.65;75.60;100482.06;2106006;27;47138;-63
2022/12/22 08:13:56;;;;;;;;;10.75;10.25;;;;;13.65;75.45;100477.59;2109514;27;46585;-64
2022/12/22 08:14:56;;;;;;;;;9.33;7.00;;;;;13.66;75.43;100479.34;2113171;27;46360;-63
2022/12/22 08:16:08;;;;;;;;;6.00;6.00;;;;;13.67;75.09;100485.53;2105702;27;46897;-62
2022/12/22 08:17:08;;;;;;;;;10.25;7.25;;;;;13.68;75.29;100489.94;2105808;27;46779;-63
2022/12/22 08:18:08;;;;;;;;;9.33;8.67;;;;;13.68;75.24;100484.59;2106036;27;47227;-62
2022/12/22 08:19:09;;;;;;;;;8.00;6.67;;;;;13.69;75.26;100486.34;2114086;27;46407;-62
2022/12/22 08:20:09;;;;;;;;;9.00;6.33;;;;;13.70;74.88;100488.94;2114210;27;45655;-63
2022/12/22 08:21:10;;;;;;;;;12.00;9.67;;;;;13.70;75.06;100496.94;2105375;27;46838;-61